sensor_id;sensor_type;location;lat;lon;timestamp;pressure;altitude;pressure_sealevel;temperature;humidity
57050;BME280;42935;50.966;16.992;2022-12-29T00:00:05;101284.48;;;4.68;100.00
57050;BME280;42935;50.966;16.992;2022-12-29T00:03:17;101280.08;;;4.74;100.00
57050;BME280;42935;50.966;16.992;2022-12-29T00:06:27;101266.25;;;4.75;100.00
57050;BME280;42935;50.966;16.992;2022-12-29T00:09:35;101265.73;;;4.69;100.00
57050;BME280;42935;50.966;16.992;2022-12-29T00:12:45;101244.85;;;4.62;100.00
57050;BME280;42935;50.966;16.992;2022-12-29T00:16:07;101248.03;;;4.66;100.00
57050;BME280;42935;50.966;16.992;2022-12-29T00:19:12;101243.28;;;4.54;100.00
57050;BME280;42935;50.966;16.992;2022-12-29T00:22:30;101246.85;;;4.58;100.00
57050;BME280;42935;50.966;16.992;2022-12-29T00:25:50;101234.91;;;4.48;100.00
57050;BME280;42935;50.966;16.992;2022-12-29T00:29:08;101231.22;;;4.45;100.00
57050;BME280;42935;50.966;16.992;2022-12-29T00:32:28;101223.37;;;4.44;100.00
57050;BME280;42935;50.966;16.992;2022-12-29T00:35:52;101222.45;;;4.57;100.00
57050;BME280;42935;50.966;16.992;2022-12-29T00:39:39;101217.02;;;4.76;100.00
57050;BME280;42935;50.966;16.992;2022-12-29T00:42:57;101215.84;;;4.99;100.00
57050;BME280;42935;50.966;16.992;2022-12-29T00:46:15;101200.70;;;5.10;100.00
57050;BME280;42935;50.966;16.992;2022-12-29T00:49:22;101199.55;;;5.04;100.00
57050;BME280;42935;50.966;16.992;2022-12-29T00:52:36;101203.97;;;5.08;100.00
57050;BME280;42935;50.966;16.992;2022-12-29T00:55:46;101199.81;;;5.06;100.00
57050;BME280;42935;50.966;16.992;2022-12-29T00:58:53;101198.89;;;5.47;100.00
57050;BME280;42935;50.966;16.992;2022-12-29T01:02:04;101184.10;;;5.55;100.00
57050;BME280;42935;50.966;16.992;2022-12-29T01:05:13;101164.77;;;5.76;100.00
57050;BME280;42935;50.966;16.992;2022-12-29T01:08:20;101171.13;;;6.05;95.48
57050;BME280;42935;50.966;16.992;2022-12-29T01:11:25;101176.21;;;5.92;97.13
57050;BME280;42935;50.966;16.992;2022-12-29T01:14:33;101183.72;;;5.57;100.00
57050;BME280;42935;50.966;16.992;2022-12-29T01:17:38;101171.63;;;5.90;97.33
57050;BME280;42935;50.966;16.992;2022-12-29T01:20:45;101164.66;;;6.11;93.90
57050;BME280;42935;50.966;16.992;2022-12-29T01:23:54;101181.51;;;6.28;91.03
57050;BME280;42935;50.966;16.992;2022-12-29T01:27:00;101179.70;;;6.10;94.34
57050;BME280;42935;50.966;16.992;2022-12-29T01:30:10;101160.45;;;6.07;92.95
57050;BME280;42935;50.966;16.992;2022-12-29T01:33:20;101163.81;;;6.14;92.29
57050;BME280;42935;50.966;16.992;2022-12-29T01:36:29;101164.88;;;6.25;88.93
57050;BME280;42935;50.966;16.992;2022-12-29T01:39:38;101158.27;;;6.10;90.29
57050;BME280;42935;50.966;16.992;2022-12-29T01:42:47;101156.05;;;6.08;90.36
57050;BME280;42935;50.966;16.992;2022-12-29T01:45:57;101173.93;;;6.22;88.50
57050;BME280;42935;50.966;16.992;2022-12-29T01:52:32;101125.74;;;5.56;93.78
57050;BME280;42935;50.966;16.992;2022-12-29T01:59:05;101138.08;;;5.66;94.61
57050;BME280;42935;50.966;16.992;2022-12-29T02:02:16;101146.85;;;5.56;96.20
57050;BME280;42935;50.966;16.992;2022-12-29T02:05:32;101144.59;;;5.45;97.49
57050;BME280;42935;50.966;16.992;2022-12-29T02:08:41;101134.06;;;5.33;99.15
57050;BME280;42935;50.966;16.992;2022-12-29T02:11:55;101140.31;;;5.20;100.00
57050;BME280;42935;50.966;16.992;2022-12-29T02:15:04;101141.86;;;5.15;100.00
57050;BME280;42935;50.966;16.992;2022-12-29T02:18:25;101140.55;;;5.06;100.00
57050;BME280;42935;50.966;16.992;2022-12-29T02:38:51;101131.12;;;4.62;100.00
57050;BME280;42935;50.966;16.992;2022-12-29T02:42:10;101129.37;;;4.64;100.00
57050;BME280;42935;50.966;16.992;2022-12-29T02:51:59;101127.01;;;4.41;100.00
57050;BME280;42935;50.966;16.992;2022-12-29T02:55:06;101125.14;;;4.42;100.00
57050;BME280;42935;50.966;16.992;2022-12-29T02:58:18;101121.73;;;4.37;100.00
57050;BME280;42935;50.966;16.992;2022-12-29T03:01:40;101113.18;;;4.29;100.00
57050;BME280;42935;50.966;16.992;2022-12-29T03:04:58;101115.05;;;4.22;100.00
57050;BME280;42935;50.966;16.992;2022-12-29T03:11:28;101106.77;;;4.28;100.00
57050;BME280;42935;50.966;16.992;2022-12-29T03:15:00;101090.23;;;4.24;100.00
57050;BME280;42935;50.966;16.992;2022-12-29T03:18:34;101087.13;;;4.21;100.00
57050;BME280;42935;50.966;16.992;2022-12-29T03:21:55;101088.43;;;4.31;100.00
57050;BME280;42935;50.966;16.992;2022-12-29T03:25:22;101074.40;;;4.29;100.00
57050;BME280;42935;50.966;16.992;2022-12-29T03:28:38;101081.73;;;4.47;100.00
57050;BME280;42935;50.966;16.992;2022-12-29T03:32:31;101084.52;;;4.45;100.00
57050;BME280;42935;50.966;16.992;2022-12-29T03:35:41;101079.88;;;4.35;100.00
57050;BME280;42935;50.966;16.992;2022-12-29T03:38:53;101079.22;;;4.38;100.00
57050;BME280;42935;50.966;16.992;2022-12-29T03:42:06;101068.37;;;4.33;100.00
57050;BME280;42935;50.966;16.992;2022-12-29T03:45:16;101078.85;;;4.36;100.00
57050;BME280;42935;50.966;16.992;2022-12-29T03:48:23;101071.70;;;4.40;100.00
57050;BME280;42935;50.966;16.992;2022-12-29T03:51:30;101070.10;;;4.47;100.00
57050;BME280;42935;50.966;16.992;2022-12-29T03:54:34;101070.54;;;4.51;100.00
57050;BME280;42935;50.966;16.992;2022-12-29T03:57:44;101077.88;;;4.51;100.00
57050;BME280;42935;50.966;16.992;2022-12-29T04:00:53;101071.27;;;4.66;100.00
57050;BME280;42935;50.966;16.992;2022-12-29T04:04:00;101059.38;;;5.07;97.97
57050;BME280;42935;50.966;16.992;2022-12-29T04:07:07;101059.53;;;5.17;95.78
57050;BME280;42935;50.966;16.992;2022-12-29T04:10:18;101053.49;;;5.30;92.87
57050;BME280;42935;50.966;16.992;2022-12-29T04:13:23;101059.17;;;5.20;93.99
57050;BME280;42935;50.966;16.992;2022-12-29T04:16:29;101080.42;;;5.23;95.22
57050;BME280;42935;50.966;16.992;2022-12-29T04:19:43;101078.35;;;5.14;99.57
57050;BME280;42935;50.966;16.992;2022-12-29T04:23:02;101077.70;;;5.10;100.00
57050;BME280;42935;50.966;16.992;2022-12-29T04:26:13;101071.44;;;5.06;100.00
57050;BME280;42935;50.966;16.992;2022-12-29T04:29:23;101045.54;;;4.90;100.00
57050;BME280;42935;50.966;16.992;2022-12-29T04:32:33;101056.91;;;4.95;100.00
57050;BME280;42935;50.966;16.992;2022-12-29T04:35:43;101051.94;;;4.96;99.97
57050;BME280;42935;50.966;16.992;2022-12-29T04:38:51;101066.95;;;5.00;99.41
57050;BME280;42935;50.966;16.992;2022-12-29T04:41:57;101065.30;;;4.92;99.99
57050;BME280;42935;50.966;16.992;2022-12-29T04:45:07;101057.10;;;4.80;100.00
57050;BME280;42935;50.966;16.992;2022-12-29T04:48:15;101067.59;;;4.76;100.00
57050;BME280;42935;50.966;16.992;2022-12-29T04:51:25;101067.25;;;4.72;100.00
57050;BME280;42935;50.966;16.992;2022-12-29T04:54:34;101062.43;;;4.68;100.00
57050;BME280;42935;50.966;16.992;2022-12-29T04:57:43;101050.45;;;4.56;100.00
57050;BME280;42935;50.966;16.992;2022-12-29T05:00:48;101037.59;;;4.49;100.00
57050;BME280;42935;50.966;16.992;2022-12-29T05:03:58;101046.71;;;4.48;100.00
57050;BME280;42935;50.966;16.992;2022-12-29T05:07:38;101044.75;;;4.49;100.00
57050;BME280;42935;50.966;16.992;2022-12-29T05:10:50;101043.51;;;4.50;100.00
57050;BME280;42935;50.966;16.992;2022-12-29T05:13:58;101040.05;;;4.51;100.00
57050;BME280;42935;50.966;16.992;2022-12-29T05:17:08;101034.73;;;4.54;100.00
57050;BME280;42935;50.966;16.992;2022-12-29T05:20:13;101025.32;;;4.49;100.00
57050;BME280;42935;50.966;16.992;2022-12-29T05:23:22;101021.81;;;4.49;100.00
57050;BME280;42935;50.966;16.992;2022-12-29T05:26:27;101024.44;;;4.58;100.00
57050;BME280;42935;50.966;16.992;2022-12-29T05:30:07;101012.52;;;4.51;100.00
57050;BME280;42935;50.966;16.992;2022-12-29T05:33:13;101013.93;;;4.55;100.00
57050;BME280;42935;50.966;16.992;2022-12-29T05:36:25;101009.70;;;4.52;100.00
57050;BME280;42935;50.966;16.992;2022-12-29T05:39:31;101002.13;;;4.41;100.00
57050;BME280;42935;50.966;16.992;2022-12-29T05:43:08;101004.57;;;4.53;100.00
57050;BME280;42935;50.966;16.992;2022-12-29T05:46:14;101004.40;;;4.63;100.00
57050;BME280;42935;50.966;16.992;2022-12-29T05:49:27;101006.82;;;4.75;100.00
57050;BME280;42935;50.966;16.992;2022-12-29T05:52:34;101007.59;;;4.93;96.38
57050;BME280;42935;50.966;16.992;2022-12-29T05:55:44;101001.07;;;5.03;93.82
57050;BME280;42935;50.966;16.992;2022-12-29T05:58:51;101005.02;;;5.10;93.92
57050;BME280;42935;50.966;16.992;2022-12-29T06:02:02;100998.42;;;5.03;95.25
57050;BME280;42935;50.966;16.992;2022-12-29T06:05:14;100999.66;;;5.10;95.92
57050;BME280;42935;50.966;16.992;2022-12-29T06:08:54;101000.61;;;5.22;93.96
57050;BME280;42935;50.966;16.992;2022-12-29T06:12:01;101006.11;;;5.21;95.29
57050;BME280;42935;50.966;16.992;2022-12-29T06:15:08;101006.77;;;5.25;95.59
57050;BME280;42935;50.966;16.992;2022-12-29T06:18:19;100994.77;;;5.21;95.40
57050;BME280;42935;50.966;16.992;2022-12-29T06:21:59;100987.82;;;5.18;96.01
57050;BME280;42935;50.966;16.992;2022-12-29T06:25:07;100981.13;;;5.19;96.75
57050;BME280;42935;50.966;16.992;2022-12-29T06:28:21;100994.45;;;5.23;95.46
57050;BME280;42935;50.966;16.992;2022-12-29T06:31:27;100992.38;;;5.19;96.29
57050;BME280;42935;50.966;16.992;2022-12-29T06:34:33;100984.62;;;5.14;97.58
57050;BME280;42935;50.966;16.992;2022-12-29T06:37:40;100987.95;;;5.09;98.25
57050;BME280;42935;50.966;16.992;2022-12-29T06:40:47;100976.43;;;4.86;97.67
57050;BME280;42935;50.966;16.992;2022-12-29T06:43:56;100984.57;;;4.79;97.44
57050;BME280;42935;50.966;16.992;2022-12-29T06:47:05;100994.65;;;4.71;97.50
57050;BME280;42935;50.966;16.992;2022-12-29T06:50:13;101006.69;;;4.78;97.53
57050;BME280;42935;50.966;16.992;2022-12-29T06:53:21;101001.76;;;4.76;98.08
57050;BME280;42935;50.966;16.992;2022-12-29T06:56:31;101000.81;;;4.68;99.79
57050;BME280;42935;50.966;16.992;2022-12-29T06:59:40;101005.50;;;4.67;100.00
57050;BME280;42935;50.966;16.992;2022-12-29T07:03:19;101002.77;;;4.61;100.00
57050;BME280;42935;50.966;16.992;2022-12-29T07:06:29;101007.08;;;4.58;100.00
57050;BME280;42935;50.966;16.992;2022-12-29T07:09:39;101017.06;;;4.54;100.00
57050;BME280;42935;50.966;16.992;2022-12-29T07:12:54;101007.17;;;4.48;100.00
57050;BME280;42935;50.966;16.992;2022-12-29T07:16:08;101006.63;;;4.46;100.00
57050;BME280;42935;50.966;16.992;2022-12-29T07:19:18;101014.15;;;4.58;100.00
57050;BME280;42935;50.966;16.992;2022-12-29T07:22:26;101022.48;;;4.60;100.00
57050;BME280;42935;50.966;16.992;2022-12-29T07:25:36;101020.97;;;4.67;100.00
57050;BME280;42935;50.966;16.992;2022-12-29T07:28:43;101015.05;;;4.73;100.00
57050;BME280;42935;50.966;16.992;2022-12-29T07:31:53;101014.06;;;4.83;100.00
57050;BME280;42935;50.966;16.992;2022-12-29T07:35:00;101018.91;;;4.89;100.00
57050;BME280;42935;50.966;16.992;2022-12-29T07:38:11;101022.68;;;4.97;100.00
57050;BME280;42935;50.966;16.992;2022-12-29T07:41:49;101016.40;;;5.01;100.00
57050;BME280;42935;50.966;16.992;2022-12-29T07:44:58;101013.09;;;5.13;100.00
57050;BME280;42935;50.966;16.992;2022-12-29T07:48:05;101014.10;;;5.22;99.78
57050;BME280;42935;50.966;16.992;2022-12-29T07:51:16;101010.58;;;5.26;98.17
57050;BME280;42935;50.966;16.992;2022-12-29T07:54:23;101000.09;;;5.36;96.31
57050;BME280;42935;50.966;16.992;2022-12-29T07:57:34;101014.53;;;5.44;96.08
57050;BME280;42935;50.966;16.992;2022-12-29T08:00:41;101015.66;;;5.44;98.03
57050;BME280;42935;50.966;16.992;2022-12-29T08:03:50;101014.39;;;5.48;96.81
57050;BME280;42935;50.966;16.992;2022-12-29T08:07:00;100999.52;;;5.39;96.91
57050;BME280;42935;50.966;16.992;2022-12-29T08:10:09;101005.02;;;5.42;99.29
57050;BME280;42935;50.966;16.992;2022-12-29T08:13:23;101012.05;;;5.49;100.00
57050;BME280;42935;50.966;16.992;2022-12-29T08:16:33;101015.77;;;5.53;100.00
57050;BME280;42935;50.966;16.992;2022-12-29T08:19:40;101002.11;;;5.51;100.00
57050;BME280;42935;50.966;16.992;2022-12-29T08:22:51;101003.92;;;5.61;98.24
57050;BME280;42935;50.966;16.992;2022-12-29T08:26:03;101018.94;;;5.75;98.20
57050;BME280;42935;50.966;16.992;2022-12-29T08:29:13;101021.10;;;5.85;96.77
57050;BME280;42935;50.966;16.992;2022-12-29T08:32:30;101021.88;;;5.87;96.87
57050;BME280;42935;50.966;16.992;2022-12-29T08:35:35;101020.49;;;5.94;98.27
57050;BME280;42935;50.966;16.992;2022-12-29T08:38:45;101017.23;;;5.95;93.22
57050;BME280;42935;50.966;16.992;2022-12-29T08:41:54;101007.50;;;5.88;97.29
57050;BME280;42935;50.966;16.992;2022-12-29T08:45:08;101014.84;;;5.93;98.55
57050;BME280;42935;50.966;16.992;2022-12-29T08:48:16;101018.39;;;5.92;100.00
57050;BME280;42935;50.966;16.992;2022-12-29T08:51:29;101018.90;;;5.87;100.00
57050;BME280;42935;50.966;16.992;2022-12-29T08:54:37;101025.03;;;5.88;100.00
57050;BME280;42935;50.966;16.992;2022-12-29T08:57:51;101018.28;;;5.84;100.00
57050;BME280;42935;50.966;16.992;2022-12-29T09:00:57;101031.32;;;5.92;100.00
57050;BME280;42935;50.966;16.992;2022-12-29T09:04:03;101032.10;;;6.07;100.00
57050;BME280;42935;50.966;16.992;2022-12-29T09:07:13;101033.84;;;6.22;100.00
57050;BME280;42935;50.966;16.992;2022-12-29T09:10:20;101027.47;;;6.22;100.00
57050;BME280;42935;50.966;16.992;2022-12-29T09:13:27;101034.62;;;6.34;100.00
57050;BME280;42935;50.966;16.992;2022-12-29T09:16:33;101038.05;;;6.36;100.00
57050;BME280;42935;50.966;16.992;2022-12-29T09:19:41;101039.18;;;6.31;100.00
57050;BME280;42935;50.966;16.992;2022-12-29T09:22:51;101043.96;;;6.29;100.00
57050;BME280;42935;50.966;16.992;2022-12-29T09:26:00;101039.45;;;6.23;100.00
57050;BME280;42935;50.966;16.992;2022-12-29T09:29:08;101038.53;;;6.26;100.00
57050;BME280;42935;50.966;16.992;2022-12-29T09:32:14;101035.33;;;6.34;100.00
57050;BME280;42935;50.966;16.992;2022-12-29T09:35:53;101043.32;;;6.47;100.00
57050;BME280;42935;50.966;16.992;2022-12-29T09:39:01;101039.51;;;6.52;100.00
57050;BME280;42935;50.966;16.992;2022-12-29T09:46:42;101028.92;;;6.75;100.00
57050;BME280;42935;50.966;16.992;2022-12-29T09:49:56;101021.25;;;6.84;100.00
57050;BME280;42935;50.966;16.992;2022-12-29T09:53:20;101025.95;;;6.95;98.96
57050;BME280;42935;50.966;16.992;2022-12-29T09:56:36;101009.11;;;7.04;95.55
57050;BME280;42935;50.966;16.992;2022-12-29T09:59:47;101008.30;;;7.33;90.80
57050;BME280;42935;50.966;16.992;2022-12-29T10:03:03;101005.84;;;7.42;90.39
57050;BME280;42935;50.966;16.992;2022-12-29T10:12:58;100984.96;;;7.25;91.90
57050;BME280;42935;50.966;16.992;2022-12-29T10:26:18;100986.79;;;7.76;91.01
57050;BME280;42935;50.966;16.992;2022-12-29T10:29:34;100978.11;;;7.87;86.57
57050;BME280;42935;50.966;16.992;2022-12-29T10:32:51;100974.68;;;7.88;91.70
57050;BME280;42935;50.966;16.992;2022-12-29T10:35:58;100980.32;;;8.01;88.93
57050;BME280;42935;50.966;16.992;2022-12-29T10:42:39;100981.74;;;8.33;85.66
57050;BME280;42935;50.966;16.992;2022-12-29T10:45:42;100989.34;;;8.45;88.47
57050;BME280;42935;50.966;16.992;2022-12-29T10:48:52;100983.82;;;8.51;86.33
57050;BME280;42935;50.966;16.992;2022-12-29T10:52:03;100977.82;;;8.54;85.78
57050;BME280;42935;50.966;16.992;2022-12-29T10:55:44;100963.34;;;8.53;83.14
57050;BME280;42935;50.966;16.992;2022-12-29T10:59:29;100971.08;;;8.75;84.07
57050;BME280;42935;50.966;16.992;2022-12-29T11:02:49;100967.06;;;8.81;86.42
57050;BME280;42935;50.966;16.992;2022-12-29T11:09:25;100956.29;;;8.81;89.63
57050;BME280;42935;50.966;16.992;2022-12-29T11:12:37;100962.34;;;8.88;90.98
57050;BME280;42935;50.966;16.992;2022-12-29T11:15:50;100952.52;;;8.88;91.47
57050;BME280;42935;50.966;16.992;2022-12-29T11:18:58;100957.58;;;8.85;91.83
57050;BME280;42935;50.966;16.992;2022-12-29T11:22:43;100935.37;;;8.78;90.63
57050;BME280;42935;50.966;16.992;2022-12-29T11:32:34;100922.80;;;9.02;98.71
57050;BME280;42935;50.966;16.992;2022-12-29T11:35:43;100926.50;;;8.98;90.98
57050;BME280;42935;50.966;16.992;2022-12-29T11:38:54;100927.03;;;8.98;89.68
57050;BME280;42935;50.966;16.992;2022-12-29T11:42:06;100923.41;;;9.03;88.19
57050;BME280;42935;50.966;16.992;2022-12-29T11:45:22;100913.23;;;8.96;86.93
57050;BME280;42935;50.966;16.992;2022-12-29T11:48:43;100897.09;;;8.90;87.59
57050;BME280;42935;50.966;16.992;2022-12-29T11:51:46;100913.34;;;9.02;87.23
57050;BME280;42935;50.966;16.992;2022-12-29T11:55:00;100919.95;;;9.11;87.43
57050;BME280;42935;50.966;16.992;2022-12-29T11:58:06;100910.25;;;9.06;89.40
57050;BME280;42935;50.966;16.992;2022-12-29T12:01:30;100915.14;;;9.11;87.59
57050;BME280;42935;50.966;16.992;2022-12-29T12:04:39;100912.15;;;9.05;89.37
57050;BME280;42935;50.966;16.992;2022-12-29T12:07:49;100912.80;;;9.06;88.97
57050;BME280;42935;50.966;16.992;2022-12-29T12:14:30;100890.18;;;9.04;84.27
57050;BME280;42935;50.966;16.992;2022-12-29T12:17:50;100904.98;;;9.11;84.53
57050;BME280;42935;50.966;16.992;2022-12-29T12:21:08;100902.63;;;8.98;87.98
57050;BME280;42935;50.966;16.992;2022-12-29T12:31:14;100887.98;;;9.01;85.96
57050;BME280;42935;50.966;16.992;2022-12-29T12:34:53;100879.79;;;9.09;83.64
57050;BME280;42935;50.966;16.992;2022-12-29T12:38:16;100894.20;;;9.14;83.62
57050;BME280;42935;50.966;16.992;2022-12-29T12:45:27;100858.71;;;8.79;84.47
57050;BME280;42935;50.966;16.992;2022-12-29T12:48:50;100884.24;;;9.05;83.63
57050;BME280;42935;50.966;16.992;2022-12-29T12:58:49;100882.34;;;9.25;84.46
57050;BME280;42935;50.966;16.992;2022-12-29T13:15:32;100896.02;;;9.14;89.82
57050;BME280;42935;50.966;16.992;2022-12-29T13:41:56;100943.02;;;8.99;91.36
57050;BME280;42935;50.966;16.992;2022-12-29T13:45:13;100945.69;;;8.95;93.62
57050;BME280;42935;50.966;16.992;2022-12-29T13:48:39;100951.13;;;8.87;97.73
57050;BME280;42935;50.966;16.992;2022-12-29T13:51:52;100949.91;;;8.64;97.30
57050;BME280;42935;50.966;16.992;2022-12-29T14:05:02;100964.67;;;7.68;94.41
57050;BME280;42935;50.966;16.992;2022-12-29T14:08:17;100966.63;;;7.52;96.42
57050;BME280;42935;50.966;16.992;2022-12-29T14:11:33;100970.05;;;7.39;96.93
57050;BME280;42935;50.966;16.992;2022-12-29T14:14:42;100964.12;;;7.30;95.89
57050;BME280;42935;50.966;16.992;2022-12-29T14:21:22;100947.76;;;6.99;97.74
57050;BME280;42935;50.966;16.992;2022-12-29T14:24:44;100963.76;;;6.92;98.35
57050;BME280;42935;50.966;16.992;2022-12-29T14:27:53;100960.73;;;6.83;99.98
57050;BME280;42935;50.966;16.992;2022-12-29T14:34:30;100961.60;;;6.57;100.00
57050;BME280;42935;50.966;16.992;2022-12-29T14:37:37;100964.45;;;6.51;100.00
57050;BME280;42935;50.966;16.992;2022-12-29T14:40:50;100962.76;;;6.44;100.00
57050;BME280;42935;50.966;16.992;2022-12-29T14:44:00;100972.90;;;6.41;100.00
57050;BME280;42935;50.966;16.992;2022-12-29T14:50:40;100973.06;;;6.29;100.00
57050;BME280;42935;50.966;16.992;2022-12-29T14:53:59;100979.63;;;6.29;100.00
57050;BME280;42935;50.966;16.992;2022-12-29T14:57:24;100988.02;;;6.27;100.00
57050;BME280;42935;50.966;16.992;2022-12-29T15:00:36;100995.04;;;6.23;100.00
57050;BME280;42935;50.966;16.992;2022-12-29T15:03:48;100996.49;;;6.18;100.00
57050;BME280;42935;50.966;16.992;2022-12-29T15:07:00;100988.95;;;6.18;100.00
57050;BME280;42935;50.966;16.992;2022-12-29T15:10:16;100981.41;;;6.11;100.00
57050;BME280;42935;50.966;16.992;2022-12-29T15:13:34;100985.77;;;6.11;100.00
57050;BME280;42935;50.966;16.992;2022-12-29T15:16:45;100974.04;;;5.97;100.00
57050;BME280;42935;50.966;16.992;2022-12-29T15:19:50;100980.16;;;5.91;100.00
57050;BME280;42935;50.966;16.992;2022-12-29T15:23:12;100991.30;;;5.82;100.00
57050;BME280;42935;50.966;16.992;2022-12-29T15:30:02;100983.05;;;5.40;100.00
57050;BME280;42935;50.966;16.992;2022-12-29T15:33:49;100997.87;;;5.32;100.00
57050;BME280;42935;50.966;16.992;2022-12-29T15:36:59;100996.15;;;5.32;100.00
57050;BME280;42935;50.966;16.992;2022-12-29T15:40:34;100988.18;;;5.61;100.00
57050;BME280;42935;50.966;16.992;2022-12-29T15:47:06;100998.30;;;5.64;100.00
57050;BME280;42935;50.966;16.992;2022-12-29T15:50:28;100997.70;;;5.58;100.00
57050;BME280;42935;50.966;16.992;2022-12-29T15:53:47;100998.73;;;5.61;100.00
57050;BME280;42935;50.966;16.992;2022-12-29T15:56:57;100996.88;;;5.61;100.00
57050;BME280;42935;50.966;16.992;2022-12-29T16:03:33;100992.84;;;5.58;100.00
57050;BME280;42935;50.966;16.992;2022-12-29T16:09:59;100988.30;;;5.54;100.00
57050;BME280;42935;50.966;16.992;2022-12-29T16:13:18;100992.91;;;5.43;100.00
57050;BME280;42935;50.966;16.992;2022-12-29T16:16:37;100998.20;;;5.26;100.00
57050;BME280;42935;50.966;16.992;2022-12-29T16:19:55;100998.86;;;5.28;100.00
57050;BME280;42935;50.966;16.992;2022-12-29T16:23:01;100998.81;;;5.22;100.00
57050;BME280;42935;50.966;16.992;2022-12-29T16:26:18;100994.59;;;5.25;100.00
57050;BME280;42935;50.966;16.992;2022-12-29T16:29:26;100998.42;;;5.22;100.00
57050;BME280;42935;50.966;16.992;2022-12-29T16:32:49;100998.48;;;5.24;100.00
57050;BME280;42935;50.966;16.992;2022-12-29T16:35:56;100998.91;;;5.23;100.00
57050;BME280;42935;50.966;16.992;2022-12-29T16:49:14;101004.56;;;5.00;100.00
57050;BME280;42935;50.966;16.992;2022-12-29T16:52:24;101001.75;;;5.16;100.00
57050;BME280;42935;50.966;16.992;2022-12-29T16:55:38;101008.55;;;5.18;100.00
57050;BME280;42935;50.966;16.992;2022-12-29T16:58:51;101008.88;;;5.17;100.00
57050;BME280;42935;50.966;16.992;2022-12-29T17:02:07;101005.91;;;5.12;100.00
57050;BME280;42935;50.966;16.992;2022-12-29T17:05:21;101009.26;;;5.07;100.00
57050;BME280;42935;50.966;16.992;2022-12-29T17:08:40;101001.50;;;5.07;100.00
57050;BME280;42935;50.966;16.992;2022-12-29T17:11:49;101008.87;;;5.20;100.00
57050;BME280;42935;50.966;16.992;2022-12-29T17:15:11;101007.84;;;5.21;100.00
57050;BME280;42935;50.966;16.992;2022-12-29T17:18:19;101009.89;;;5.24;100.00
57050;BME280;42935;50.966;16.992;2022-12-29T17:21:25;101011.80;;;5.19;100.00
57050;BME280;42935;50.966;16.992;2022-12-29T17:24:34;100983.50;;;4.95;100.00
57050;BME280;42935;50.966;16.992;2022-12-29T17:28:00;101002.11;;;4.97;100.00
57050;BME280;42935;50.966;16.992;2022-12-29T17:31:11;101009.04;;;4.92;100.00
57050;BME280;42935;50.966;16.992;2022-12-29T17:34:21;101013.02;;;4.92;100.00
57050;BME280;42935;50.966;16.992;2022-12-29T17:37:35;100992.84;;;4.91;100.00
57050;BME280;42935;50.966;16.992;2022-12-29T17:40:42;101004.25;;;5.01;100.00
57050;BME280;42935;50.966;16.992;2022-12-29T17:43:49;101015.86;;;5.00;100.00
57050;BME280;42935;50.966;16.992;2022-12-29T17:46:59;101010.12;;;4.84;100.00
57050;BME280;42935;50.966;16.992;2022-12-29T17:50:12;101014.00;;;4.97;100.00
57050;BME280;42935;50.966;16.992;2022-12-29T17:53:28;101023.31;;;4.98;100.00
57050;BME280;42935;50.966;16.992;2022-12-29T17:56:37;101030.34;;;5.03;100.00
57050;BME280;42935;50.966;16.992;2022-12-29T17:59:48;101042.58;;;5.04;100.00
57050;BME280;42935;50.966;16.992;2022-12-29T18:02:56;101042.00;;;5.02;100.00
57050;BME280;42935;50.966;16.992;2022-12-29T18:06:12;101047.02;;;4.90;100.00
57050;BME280;42935;50.966;16.992;2022-12-29T18:09:22;101045.98;;;4.90;100.00
57050;BME280;42935;50.966;16.992;2022-12-29T18:12:38;101058.90;;;4.94;100.00
57050;BME280;42935;50.966;16.992;2022-12-29T18:15:45;101036.55;;;4.81;100.00
57050;BME280;42935;50.966;16.992;2022-12-29T18:18:54;101062.22;;;4.93;100.00
57050;BME280;42935;50.966;16.992;2022-12-29T18:22:38;101059.06;;;4.96;100.00
57050;BME280;42935;50.966;16.992;2022-12-29T18:29:08;101070.53;;;5.05;100.00
57050;BME280;42935;50.966;16.992;2022-12-29T18:32:18;101069.88;;;5.04;100.00
57050;BME280;42935;50.966;16.992;2022-12-29T18:35:37;101050.24;;;5.01;100.00
57050;BME280;42935;50.966;16.992;2022-12-29T18:38:48;101060.77;;;5.11;100.00
57050;BME280;42935;50.966;16.992;2022-12-29T18:41:58;101060.34;;;5.09;100.00
57050;BME280;42935;50.966;16.992;2022-12-29T18:45:18;101054.56;;;5.00;100.00
57050;BME280;42935;50.966;16.992;2022-12-29T18:48:28;101052.38;;;4.96;100.00
57050;BME280;42935;50.966;16.992;2022-12-29T18:51:35;101052.71;;;4.96;100.00
57050;BME280;42935;50.966;16.992;2022-12-29T18:54:52;101031.59;;;4.72;100.00
57050;BME280;42935;50.966;16.992;2022-12-29T18:58:09;101043.07;;;4.76;100.00
57050;BME280;42935;50.966;16.992;2022-12-29T19:01:20;101046.96;;;4.60;100.00
57050;BME280;42935;50.966;16.992;2022-12-29T19:04:34;101044.97;;;4.51;100.00
57050;BME280;42935;50.966;16.992;2022-12-29T19:07:43;101054.80;;;4.47;100.00
57050;BME280;42935;50.966;16.992;2022-12-29T19:10:50;101040.85;;;4.42;100.00
57050;BME280;42935;50.966;16.992;2022-12-29T19:14:03;101047.46;;;4.39;100.00
57050;BME280;42935;50.966;16.992;2022-12-29T19:17:17;101058.21;;;4.49;100.00
57050;BME280;42935;50.966;16.992;2022-12-29T19:23:45;101042.28;;;4.36;100.00
57050;BME280;42935;50.966;16.992;2022-12-29T19:26:52;101052.08;;;4.31;100.00
57050;BME280;42935;50.966;16.992;2022-12-29T19:30:03;101047.14;;;4.19;100.00
57050;BME280;42935;50.966;16.992;2022-12-29T19:33:15;101042.44;;;4.12;100.00
57050;BME280;42935;50.966;16.992;2022-12-29T19:36:24;101024.62;;;3.96;100.00